Time;durP1;ratioP1;P1;durP2;ratioP2;P2;SDS_P1;SDS_P2;PMS_P1;PMS_P2;Temp;Humidity;BMP_temperature;BMP_pressure;BME280_temperature;BME280_humidity;BME280_pressure;Samples;Min_cycle;Max_cycle;Signal;HPM_P1;HPM_P2
2022/04/12 00:01:07;;;;;;;6.93;5.10;;;12.20;53.70;;;;;;5133090;28;20020;-67
2022/04/12 00:03:33;;;;;;;8.43;5.05;;;12.20;52.60;;;;;;5134058;28;20087;-67
2022/04/12 00:05:59;;;;;;;8.77;5.15;;;12.10;52.70;;;;;;5134016;28;20031;-68
2022/04/12 00:08:25;;;;;;;8.43;4.88;;;12.10;53.00;;;;;;5133870;28;20031;-67
2022/04/12 00:10:51;;;;;;;10.38;5.15;;;12.10;54.00;;;;;;5133945;28;20027;-67
2022/04/12 00:13:20;;;;;;;8.48;4.85;;;12.10;52.90;;;;;;5133879;28;20024;-67
2022/04/12 00:15:48;;;;;;;7.85;4.97;;;12.10;52.90;;;;;;5133965;28;20376;-67
2022/04/12 00:20:59;;;;;;;7.53;4.88;;;12.10;52.60;;;;;;5133996;28;20046;-67
2022/04/12 00:23:25;;;;;;;5.97;4.57;;;12.10;52.80;;;;;;5132766;28;20039;-67
2022/04/12 00:25:53;;;;;;;6.25;4.75;;;12.00;52.80;;;;;;5133778;28;20034;-67
2022/04/12 00:28:19;;;;;;;7.93;5.10;;;11.90;53.20;;;;;;5133668;28;20020;-67
2022/04/12 00:30:45;;;;;;;7.35;4.78;;;11.90;53.20;;;;;;5133760;28;20031;-67
2022/04/12 00:33:11;;;;;;;7.95;4.72;;;11.90;53.30;;;;;;5133720;28;20019;-67
2022/04/12 00:35:37;;;;;;;7.03;4.55;;;11.90;53.30;;;;;;5133683;28;20016;-67
2022/04/12 00:38:13;;;;;;;7.75;4.43;;;11.90;53.40;;;;;;5133692;28;20030;-68
2022/04/12 00:40:39;;;;;;;6.45;4.35;;;11.90;53.30;;;;;;5133560;28;20040;-67
2022/04/12 00:43:04;;;;;;;7.65;4.65;;;11.90;53.40;;;;;;5133616;28;20027;-67
2022/04/12 00:45:30;;;;;;;6.57;4.60;;;11.90;53.40;;;;;;5133605;28;20019;-67
2022/04/12 00:47:56;;;;;;;7.15;4.78;;;11.90;53.30;;;;;;5133579;28;20476;-67
2022/04/12 00:50:21;;;;;;;7.72;4.72;;;11.90;53.40;;;;;;5133480;28;20044;-67
2022/04/12 00:52:52;;;;;;;8.10;4.43;;;11.90;53.50;;;;;;5133653;28;20028;-67
2022/04/12 00:55:18;;;;;;;9.30;4.95;;;11.80;53.70;;;;;;5133538;28;20083;-67
2022/04/12 00:57:44;;;;;;;6.78;4.50;;;11.80;53.80;;;;;;5133489;28;20027;-67
2022/04/12 01:00:12;;;;;;;6.72;4.72;;;11.80;53.90;;;;;;5133485;28;20028;-67
2022/04/12 01:02:39;;;;;;;8.85;4.95;;;11.80;54.10;;;;;;5135311;28;20087;-67
2022/04/12 01:05:05;;;;;;;8.88;4.97;;;11.70;54.00;;;;;;5136352;28;20118;-67
2022/04/12 01:07:32;;;;;;;6.72;4.60;;;11.70;54.10;;;;;;5137328;28;20097;-67
2022/04/12 01:09:58;;;;;;;6.85;4.78;;;11.70;54.00;;;;;;5137276;28;20028;-66
2022/04/12 01:12:28;;;;;;;7.38;4.97;;;11.70;53.90;;;;;;5137313;28;20022;-68
2022/04/12 01:14:54;;;;;;;7.82;4.78;;;11.70;53.80;;;;;;5136353;28;20050;-67
2022/04/12 01:17:20;;;;;;;9.52;4.80;;;11.60;54.00;;;;;;5137172;28;20023;-67
2022/04/12 01:19:45;;;;;;;8.50;4.60;;;11.60;54.00;;;;;;5137076;28;20020;-67
2022/04/12 01:22:24;;;;;;;7.00;4.97;;;11.70;54.10;;;;;;5137076;28;20039;-66
2022/04/12 01:24:50;;;;;;;10.00;5.20;;;11.70;54.00;;;;;;5137129;28;20051;-66
2022/04/12 01:27:15;;;;;;;8.05;5.25;;;11.60;54.90;;;;;;5136997;28;20027;-67
2022/04/12 01:29:41;;;;;;;7.30;4.57;;;11.70;54.00;;;;;;5136817;28;20047;-67
2022/04/12 01:32:08;;;;;;;7.55;4.70;;;11.70;54.10;;;;;;5135912;28;20024;-67
2022/04/12 01:34:35;;;;;;;6.65;4.53;;;11.60;54.30;;;;;;5136978;28;20019;-67
2022/04/12 01:37:02;;;;;;;8.32;5.00;;;11.60;54.50;;;;;;5136836;28;20024;-67
2022/04/12 01:39:28;;;;;;;8.50;5.20;;;11.60;54.70;;;;;;5136792;28;20024;-67
2022/04/12 01:41:54;;;;;;;6.70;4.70;;;11.60;54.70;;;;;;5135559;28;20058;-67
2022/04/12 01:44:20;;;;;;;12.10;5.78;;;11.60;54.70;;;;;;5136631;28;20028;-67
2022/04/12 01:46:45;;;;;;;7.57;4.68;;;11.60;54.60;;;;;;5136583;28;20496;-67
2022/04/12 01:49:11;;;;;;;8.40;4.85;;;11.60;54.60;;;;;;5136620;28;20020;-67
2022/04/12 01:51:36;;;;;;;8.68;4.95;;;11.60;54.50;;;;;;5136496;28;20027;-67
2022/04/12 01:54:02;;;;;;;8.50;5.10;;;11.60;54.60;;;;;;5136451;28;20032;-67
2022/04/12 01:56:28;;;;;;;8.05;5.15;;;11.60;55.40;;;;;;5136404;28;20030;-68
2022/04/12 01:58:54;;;;;;;7.35;4.40;;;11.50;54.70;;;;;;5136436;28;20088;-67
2022/04/12 02:01:20;;;;;;;7.97;4.82;;;11.40;55.10;;;;;;5136470;28;20020;-67
2022/04/12 02:03:46;;;;;;;9.77;4.93;;;11.40;55.00;;;;;;5135333;28;20032;-67
2022/04/12 02:06:12;;;;;;;7.95;4.97;;;11.40;55.20;;;;;;5136162;28;20083;-67
2022/04/12 02:08:40;;;;;;;6.70;4.70;;;11.40;55.20;;;;;;5136117;28;20042;-67
2022/04/12 02:11:06;;;;;;;11.07;5.35;;;11.40;55.50;;;;;;5136148;28;20077;-67
2022/04/12 02:13:32;;;;;;;7.95;4.65;;;11.30;55.50;;;;;;5135265;28;20023;-67
2022/04/12 02:15:58;;;;;;;8.52;4.82;;;11.30;55.50;;;;;;5134967;28;20032;-67
2022/04/12 02:18:23;;;;;;;8.13;5.00;;;11.30;55.50;;;;;;5135992;28;20019;-67
2022/04/12 02:20:49;;;;;;;8.02;5.22;;;11.30;55.70;;;;;;5135947;28;20452;-68
2022/04/12 02:23:14;;;;;;;7.57;5.30;;;11.30;56.70;;;;;;5135948;28;20020;-67
2022/04/12 02:25:40;;;;;;;8.23;5.38;;;11.30;55.70;;;;;;5135854;28;20546;-67
2022/04/12 02:28:06;;;;;;;8.27;5.50;;;11.20;55.70;;;;;;5134808;28;20043;-67
2022/04/12 02:30:31;;;;;;;10.45;5.25;;;11.20;55.70;;;;;;5135733;27;20036;-67
2022/04/12 02:32:58;;;;;;;9.32;5.22;;;11.20;55.80;;;;;;5135686;28;20027;-67
2022/04/12 02:35:25;;;;;;;9.70;5.40;;;11.20;56.80;;;;;;5135715;28;20020;-68
2022/04/12 02:37:51;;;;;;;10.95;5.70;;;11.30;55.80;;;;;;5135750;28;20042;-67
2022/04/12 02:40:17;;;;;;;9.45;5.28;;;11.30;56.00;;;;;;5135359;28;20059;-67
2022/04/12 02:42:43;;;;;;;6.35;4.55;;;11.20;56.20;;;;;;5135564;28;20035;-67
2022/04/12 02:45:09;;;;;;;9.50;5.03;;;11.20;57.20;;;;;;5135507;28;20047;-67
2022/04/12 02:47:35;;;;;;;7.78;5.13;;;11.10;56.40;;;;;;5135396;28;20031;-67
2022/04/12 02:50:01;;;;;;;10.52;5.53;;;11.00;57.00;;;;;;5135297;28;20028;-67
2022/04/12 02:52:26;;;;;;;7.30;5.25;;;10.90;57.00;;;;;;5135283;28;20026;-67
2022/04/12 02:54:52;;;;;;;8.90;5.18;;;10.90;57.00;;;;;;5135284;28;20073;-67
2022/04/12 02:57:18;;;;;;;8.85;5.07;;;10.90;57.00;;;;;;5135200;28;20039;-67
2022/04/12 02:59:43;;;;;;;11.18;5.60;;;10.90;56.90;;;;;;5135168;28;20038;-67
2022/04/12 03:02:09;;;;;;;8.50;5.18;;;10.90;57.20;;;;;;5135117;28;20020;-68
2022/04/12 03:04:34;;;;;;;8.98;5.63;;;10.90;57.00;;;;;;5135177;28;20464;-68
2022/04/12 03:07:00;;;;;;;9.57;5.47;;;10.90;57.20;;;;;;5135045;28;20032;-68
2022/04/12 03:09:26;;;;;;;9.95;5.35;;;10.90;57.20;;;;;;5134921;28;20024;-68
2022/04/12 03:11:51;;;;;;;9.00;5.22;;;10.90;57.20;;;;;;5134945;28;20045;-68
2022/04/12 03:14:17;;;;;;;7.97;5.00;;;10.90;57.20;;;;;;5133894;28;20054;-68
2022/04/12 03:16:43;;;;;;;8.73;4.70;;;10.80;57.10;;;;;;5133878;28;20032;-67
2022/04/12 03:19:08;;;;;;;7.30;4.45;;;10.80;57.10;;;;;;5134787;28;20083;-68
2022/04/12 03:21:35;;;;;;;8.82;4.78;;;10.70;57.20;;;;;;5134741;28;20024;-68
2022/04/12 03:24:00;;;;;;;8.52;5.05;;;10.70;57.20;;;;;;5134732;28;20030;-68
2022/04/12 03:26:26;;;;;;;9.70;5.43;;;10.70;57.60;;;;;;5134658;28;20047;-67
2022/04/12 03:28:52;;;;;;;14.50;5.60;;;10.70;57.80;;;;;;5133398;28;20053;-67
2022/04/12 03:31:17;;;;;;;8.45;5.13;;;10.70;57.90;;;;;;5133683;28;20031;-67
2022/04/12 03:33:43;;;;;;;10.30;5.07;;;10.60;57.70;;;;;;5134522;28;20036;-67
2022/04/12 03:36:08;;;;;;;8.90;5.13;;;10.70;57.20;;;;;;5134469;28;20381;-68
2022/04/12 03:38:39;;;;;;;9.40;5.18;;;10.60;57.90;;;;;;5134422;28;20036;-67
2022/04/12 03:41:06;;;;;;;10.85;5.53;;;10.70;58.00;;;;;;5134301;28;20185;-67
2022/04/12 03:43:33;;;;;;;8.75;5.05;;;10.70;58.10;;;;;;5134392;28;20103;-67
2022/04/12 03:45:59;;;;;;;9.70;5.85;;;10.60;58.20;;;;;;5134420;28;20023;-67
2022/04/12 03:48:24;;;;;;;10.73;5.40;;;10.70;58.40;;;;;;5134172;28;20035;-68
2022/04/12 03:50:50;;;;;;;9.43;5.22;;;10.60;58.50;;;;;;5134369;28;20090;-67
2022/04/12 03:53:16;;;;;;;10.57;5.57;;;10.60;58.70;;;;;;5134192;28;20038;-67
2022/04/12 03:55:46;;;;;;;11.77;6.10;;;10.60;58.70;;;;;;5134159;28;20024;-67
2022/04/12 03:58:12;;;;;;;8.55;5.57;;;10.60;58.60;;;;;;5134236;28;20035;-67
2022/04/12 04:00:37;;;;;;;10.05;5.13;;;10.60;58.50;;;;;;5134095;28;20024;-67
2022/04/12 04:03:03;;;;;;;10.68;5.90;;;10.60;58.60;;;;;;5134055;28;20051;-67
2022/04/12 04:05:29;;;;;;;9.18;5.25;;;10.60;59.60;;;;;;5134025;28;20031;-67
2022/04/12 04:07:55;;;;;;;10.55;5.78;;;10.60;58.50;;;;;;5134007;27;20028;-67
2022/04/12 04:10:21;;;;;;;9.55;5.35;;;10.60;58.50;;;;;;5133860;28;20032;-67
2022/04/12 04:12:46;;;;;;;10.18;5.57;;;10.50;58.60;;;;;;5133967;28;20020;-67
2022/04/12 04:15:12;;;;;;;11.30;5.40;;;10.40;59.10;;;;;;5133934;28;20019;-68
2022/04/12 04:17:40;;;;;;;9.45;5.55;;;10.40;58.90;;;;;;5133824;28;20107;-68
2022/04/12 04:20:07;;;;;;;9.32;5.55;;;10.40;59.40;;;;;;5133877;28;20020;-67
2022/04/12 04:22:32;;;;;;;10.40;5.72;;;10.40;59.30;;;;;;5133767;28;20087;-67
2022/04/12 04:24:58;;;;;;;12.45;5.60;;;10.40;59.20;;;;;;5133760;28;20031;-67
2022/04/12 04:27:28;;;;;;;7.40;4.85;;;10.40;59.30;;;;;;5133754;28;20035;-67
2022/04/12 04:29:55;;;;;;;10.85;5.55;;;10.40;59.40;;;;;;5133765;28;20031;-68
2022/04/12 04:32:22;;;;;;;9.50;4.97;;;10.40;59.40;;;;;;5133777;28;20482;-68
2022/04/12 04:34:48;;;;;;;9.23;5.28;;;10.40;60.40;;;;;;5132713;28;20035;-68
2022/04/12 04:37:14;;;;;;;11.10;5.72;;;10.30;59.50;;;;;;5135077;28;20032;-68
2022/04/12 04:39:39;;;;;;;10.95;6.25;;;10.30;59.80;;;;;;5137920;28;20045;-68
2022/04/12 04:42:05;;;;;;;10.20;5.50;;;10.30;59.80;;;;;;5137769;28;20072;-67
2022/04/12 04:44:32;;;;;;;10.05;5.30;;;10.20;59.70;;;;;;5137806;28;20052;-67
2022/04/12 04:46:58;;;;;;;11.32;5.38;;;10.20;59.90;;;;;;5137738;28;20533;-68
2022/04/12 04:49:25;;;;;;;8.15;4.80;;;10.20;59.80;;;;;;5136639;28;20106;-67
2022/04/12 04:51:50;;;;;;;8.40;5.25;;;10.20;59.80;;;;;;5137653;28;20020;-67
2022/04/12 04:54:16;;;;;;;8.55;5.60;;;10.20;59.70;;;;;;5137747;27;20050;-67
2022/04/12 04:56:42;;;;;;;9.68;5.30;;;10.20;59.70;;;;;;5137576;28;20031;-67
2022/04/12 04:59:10;;;;;;;9.45;5.00;;;10.20;60.00;;;;;;5137602;28;20472;-67
2022/04/12 05:01:35;;;;;;;8.27;5.18;;;10.20;60.00;;;;;;5137531;28;20388;-67
2022/04/12 05:04:01;;;;;;;10.00;5.40;;;10.20;60.10;;;;;;5137590;28;20027;-67
2022/04/12 05:06:27;;;;;;;9.32;5.60;;;10.20;60.30;;;;;;5136345;28;20126;-67
2022/04/12 05:08:52;;;;;;;10.35;5.55;;;10.20;59.90;;;;;;5137260;28;20027;-67
2022/04/12 05:11:18;;;;;;;11.15;5.82;;;10.20;60.00;;;;;;5137323;28;20114;-67
2022/04/12 05:13:44;;;;;;;11.23;5.75;;;10.20;60.20;;;;;;5137357;28;20035;-67
2022/04/12 05:16:09;;;;;;;12.32;5.65;;;10.30;61.20;;;;;;5137189;28;20027;-68
2022/04/12 05:18:35;;;;;;;10.55;5.75;;;10.20;60.10;;;;;;5137128;28;20024;-67
2022/04/12 05:21:00;;;;;;;8.85;5.10;;;10.20;59.90;;;;;;5137114;28;20031;-67
2022/04/12 05:23:26;;;;;;;11.65;5.60;;;10.20;60.20;;;;;;5136041;28;20034;-67
2022/04/12 05:25:53;;;;;;;10.18;5.80;;;10.20;60.50;;;;;;5137047;28;20031;-67
2022/04/12 05:28:20;;;;;;;9.60;5.40;;;10.20;60.30;;;;;;5136904;28;20016;-67
2022/04/12 05:30:46;;;;;;;10.88;5.80;;;10.20;60.20;;;;;;5136908;28;20019;-67
2022/04/12 05:33:12;;;;;;;9.75;5.70;;;10.20;60.20;;;;;;5136904;28;20107;-67
2022/04/12 05:35:38;;;;;;;9.93;5.63;;;10.30;60.30;;;;;;5136998;27;20019;-67
2022/04/12 05:38:06;;;;;;;10.05;5.68;;;10.30;60.30;;;;;;5136789;28;20031;-67
2022/04/12 05:40:32;;;;;;;9.32;5.32;;;10.30;60.40;;;;;;5136667;28;20047;-67
2022/04/12 05:42:58;;;;;;;10.77;5.70;;;10.30;60.30;;;;;;5136674;28;20024;-67
2022/04/12 05:45:23;;;;;;;8.05;5.35;;;10.30;60.90;;;;;;5136618;28;20042;-67
2022/04/12 05:47:54;;;;;;;10.00;5.82;;;10.30;61.10;;;;;;5136330;28;20038;-67
2022/04/12 05:50:21;;;;;;;9.70;5.72;;;10.40;61.20;;;;;;5135763;28;20045;-67
2022/04/12 05:52:47;;;;;;;12.35;5.95;;;10.40;61.00;;;;;;5136546;28;20020;-67
2022/04/12 05:55:15;;;;;;;11.13;5.85;;;10.50;60.80;;;;;;5136468;28;20056;-67
2022/04/12 05:57:53;;;;;;;13.25;6.45;;;10.60;60.50;;;;;;5136425;27;20023;-67
2022/04/12 06:00:20;;;;;;;11.65;5.90;;;10.60;61.50;;;;;;5136408;28;20027;-67
2022/04/12 06:02:50;;;;;;;10.15;5.45;;;10.60;61.50;;;;;;5136318;28;20028;-67
2022/04/12 06:05:18;;;;;;;10.15;5.65;;;10.60;61.30;;;;;;5136253;28;20047;-67
2022/04/12 06:07:44;;;;;;;13.77;7.60;;;10.60;60.80;;;;;;5136200;28;20016;-68
2022/04/12 06:10:11;;;;;;;12.35;6.85;;;10.60;61.30;;;;;;5136120;28;20032;-67
2022/04/12 06:12:38;;;;;;;9.77;5.68;;;10.60;61.50;;;;;;5136187;28;20054;-67
2022/04/12 06:15:04;;;;;;;11.65;5.57;;;10.60;61.40;;;;;;5136111;28;20055;-67
2022/04/12 06:17:36;;;;;;;9.30;5.57;;;10.60;61.70;;;;;;5136022;28;20046;-68
2022/04/12 06:20:10;;;;;;;12.57;6.25;;;10.60;61.90;;;;;;5135096;28;20035;-67
2022/04/12 06:22:36;;;;;;;11.73;5.85;;;10.60;61.40;;;;;;5135927;27;20031;-68
2022/04/12 06:25:03;;;;;;;11.43;5.50;;;10.60;61.50;;;;;;5135939;28;20038;-68
2022/04/12 06:27:33;;;;;;;10.60;5.80;;;10.60;61.70;;;;;;5135762;28;20119;-68
2022/04/12 06:30:04;;;;;;;8.82;5.68;;;10.70;61.40;;;;;;5135902;28;20024;-67
2022/04/12 06:32:30;;;;;;;9.07;5.80;;;10.80;61.50;;;;;;5135798;28;20023;-67
2022/04/12 06:34:56;;;;;;;11.75;6.00;;;10.80;61.30;;;;;;5135901;28;20468;-68
2022/04/12 06:37:26;;;;;;;10.48;5.47;;;10.90;61.40;;;;;;5134731;28;20028;-68
2022/04/12 06:39:52;;;;;;;9.40;5.40;;;10.90;61.60;;;;;;5135619;28;20027;-68
2022/04/12 06:42:18;;;;;;;9.48;5.47;;;10.90;62.00;;;;;;5134306;28;20479;-68
2022/04/12 06:44:44;;;;;;;8.48;5.72;;;11.00;61.50;;;;;;5135656;28;20031;-67
2022/04/12 06:47:09;;;;;;;9.98;5.60;;;11.10;61.10;;;;;;5135366;28;20034;-68
2022/04/12 06:49:35;;;;;;;10.90;6.03;;;11.10;61.50;;;;;;5135302;28;20032;-68
2022/04/12 06:52:00;;;;;;;8.45;5.53;;;11.10;61.10;;;;;;5135377;28;20116;-68
2022/04/12 06:54:27;;;;;;;8.93;5.68;;;11.20;61.30;;;;;;5135285;28;20024;-68
2022/04/12 06:56:53;;;;;;;9.90;5.53;;;11.20;61.80;;;;;;5135432;28;20031;-68
2022/04/12 06:59:18;;;;;;;9.40;5.82;;;11.30;61.50;;;;;;5135039;28;20031;-68
2022/04/12 07:01:44;;;;;;;9.32;5.80;;;11.40;61.30;;;;;;5135087;28;20042;-68
2022/04/12 07:04:09;;;;;;;9.20;6.00;;;11.40;61.90;;;;;;5135101;28;20058;-67
2022/04/12 07:06:35;;;;;;;9.50;6.03;;;11.50;61.20;;;;;;5134149;28;20034;-68
2022/04/12 07:09:01;;;;;;;11.77;6.60;;;11.60;61.50;;;;;;5134897;28;20063;-67
2022/04/12 07:11:27;;;;;;;13.10;6.85;;;11.60;60.80;;;;;;5135015;28;20079;-67
2022/04/12 07:13:53;;;;;;;9.75;5.93;;;11.70;61.00;;;;;;5134878;28;20035;-68
2022/04/12 07:16:18;;;;;;;12.25;7.15;;;11.70;61.10;;;;;;5133935;28;20032;-68
2022/04/12 07:18:44;;;;;;;10.52;5.72;;;11.80;61.90;;;;;;5134826;28;20036;-68
2022/04/12 07:21:09;;;;;;;13.45;6.38;;;11.90;61.20;;;;;;5134810;28;20036;-68
2022/04/12 07:23:36;;;;;;;12.20;6.38;;;11.90;60.50;;;;;;5134836;28;20024;-68
2022/04/12 07:26:03;;;;;;;10.82;6.68;;;12.00;61.10;;;;;;5134729;28;20015;-68
2022/04/12 07:28:29;;;;;;;10.45;5.95;;;12.10;61.70;;;;;;5134500;28;20024;-68
2022/04/12 07:30:54;;;;;;;9.57;5.88;;;12.20;61.10;;;;;;5134595;28;20049;-67
2022/04/12 07:33:20;;;;;;;10.23;6.25;;;12.40;60.60;;;;;;5134563;28;20043;-67
2022/04/12 07:35:46;;;;;;;10.85;6.35;;;12.50;59.60;;;;;;5134498;28;20024;-68
2022/04/12 07:38:12;;;;;;;11.52;6.05;;;12.60;59.00;;;;;;5134428;28;20034;-68
2022/04/12 07:40:38;;;;;;;10.52;6.45;;;12.70;60.50;;;;;;5134209;28;20115;-68
2022/04/12 07:43:03;;;;;;;8.52;5.40;;;12.80;60.00;;;;;;5133428;28;20528;-67
2022/04/12 07:45:29;;;;;;;10.05;6.32;;;12.90;59.40;;;;;;5134338;28;20046;-67
2022/04/12 07:47:55;;;;;;;9.45;5.35;;;13.00;58.20;;;;;;5134293;28;20038;-68
2022/04/12 07:50:21;;;;;;;8.38;5.15;;;13.10;57.20;;;;;;5134174;28;20031;-67
2022/04/12 07:52:47;;;;;;;9.02;5.70;;;13.20;56.90;;;;;;5134222;28;20019;-67
2022/04/12 07:55:13;;;;;;;10.15;5.57;;;13.40;57.00;;;;;;5134210;28;20157;-67
2022/04/12 07:57:38;;;;;;;10.60;5.22;;;13.50;57.00;;;;;;5134118;28;20032;-68
2022/04/12 08:00:05;;;;;;;7.88;5.25;;;13.60;57.20;;;;;;5134076;28;20036;-68
2022/04/12 08:02:30;;;;;;;7.88;5.45;;;13.70;55.90;;;;;;5134078;28;20360;-68
2022/04/12 08:04:56;;;;;;;9.98;6.05;;;13.80;56.10;;;;;;5134001;28;20035;-68
2022/04/12 08:07:21;;;;;;;10.68;5.32;;;14.00;56.30;;;;;;5134056;28;20099;-68
2022/04/12 08:09:47;;;;;;;7.95;4.82;;;14.10;56.50;;;;;;5133874;28;20032;-68
2022/04/12 08:12:13;;;;;;;10.10;5.40;;;14.20;54.10;;;;;;5133198;28;20035;-68
2022/04/12 08:14:38;;;;;;;11.18;5.00;;;14.30;55.30;;;;;;5133873;28;20092;-68
2022/04/12 08:17:04;;;;;;;9.07;5.22;;;14.40;54.30;;;;;;5133962;28;20035;-68
2022/04/12 08:19:30;;;;;;;8.23;4.95;;;14.50;53.60;;;;;;5133854;28;20031;-68
2022/04/12 08:21:55;;;;;;;8.52;4.50;;;14.60;54.50;;;;;;5133797;28;20031;-68
2022/04/12 08:24:22;;;;;;;9.88;5.00;;;14.70;53.60;;;;;;5133883;28;20036;-68
2022/04/12 08:26:47;;;;;;;6.25;4.43;;;14.90;53.00;;;;;;5132744;28;20023;-68
2022/04/12 08:29:13;;;;;;;7.57;4.65;;;14.90;54.40;;;;;;5133575;28;20053;-68
2022/04/12 08:31:39;;;;;;;7.70;4.35;;;15.00;54.30;;;;;;5133751;28;20034;-67
2022/04/12 08:34:05;;;;;;;9.88;4.68;;;15.00;53.30;;;;;;5133649;28;20069;-67
2022/04/12 08:36:31;;;;;;;8.10;5.20;;;15.10;54.10;;;;;;5133711;28;20087;-67
2022/04/12 08:38:57;;;;;;;8.80;4.75;;;15.20;52.60;;;;;;5133649;28;20031;-67
2022/04/12 08:41:24;;;;;;;10.63;5.43;;;15.30;52.80;;;;;;5133489;28;20059;-67
2022/04/12 08:43:55;;;;;;;7.50;4.55;;;15.30;52.40;;;;;;5133642;28;20027;-67
2022/04/12 08:46:24;;;;;;;6.80;4.55;;;15.40;52.80;;;;;;5132737;28;20027;-67
2022/04/12 08:48:52;;;;;;;8.45;4.50;;;15.40;51.70;;;;;;5133555;28;20080;-67
2022/04/12 08:51:17;;;;;;;11.52;5.28;;;15.60;53.20;;;;;;5133601;28;20446;-67
2022/04/12 08:53:45;;;;;;;9.80;4.93;;;15.70;54.00;;;;;;5133698;28;20024;-67
2022/04/12 08:56:12;;;;;;;8.20;4.82;;;15.80;52.70;;;;;;5132545;28;20059;-67
2022/04/12 08:58:37;;;;;;;8.15;4.85;;;15.90;53.70;;;;;;5133432;28;20016;-67
2022/04/12 09:01:03;;;;;;;9.43;4.75;;;16.00;52.50;;;;;;5133485;28;20057;-67
2022/04/12 09:03:28;;;;;;;9.35;5.03;;;16.10;50.40;;;;;;5132382;28;20029;-67
2022/04/12 09:05:54;;;;;;;10.45;4.72;;;16.10;51.40;;;;;;5133431;28;20088;-67
2022/04/12 09:08:31;;;;;;;5.93;3.90;;;16.20;51.40;;;;;;5133494;28;20026;-67
2022/04/12 09:10:59;;;;;;;6.85;3.85;;;16.30;50.40;;;;;;5133573;28;20369;-67
2022/04/12 09:13:24;;;;;;;7.55;4.10;;;16.40;50.60;;;;;;5132445;28;20024;-67
2022/04/12 09:15:50;;;;;;;5.57;4.18;;;16.40;49.30;;;;;;5133394;28;20050;-67
2022/04/12 09:18:30;;;;;;;8.57;4.50;;;16.40;48.80;;;;;;5133318;28;20019;-67
2022/04/12 09:21:13;;;;;;;7.53;4.00;;;16.50;49.10;;;;;;5133469;28;20088;-67
2022/04/12 09:23:44;;;;;;;7.82;4.40;;;16.60;48.80;;;;;;5135255;28;20027;-68
2022/04/12 09:26:16;;;;;;;9.23;4.50;;;16.60;49.50;;;;;;5137298;28;20036;-67
2022/04/12 09:28:42;;;;;;;10.18;4.22;;;16.80;50.50;;;;;;5136902;28;20016;-67
2022/04/12 09:31:17;;;;;;;9.10;4.35;;;16.90;48.20;;;;;;5137013;28;20016;-67
2022/04/12 09:33:44;;;;;;;8.20;4.60;;;16.90;48.10;;;;;;5136965;28;20024;-67
2022/04/12 09:36:11;;;;;;;6.95;3.97;;;17.00;49.40;;;;;;5136889;28;20062;-67
2022/04/12 09:38:38;;;;;;;5.97;4.05;;;17.10;49.20;;;;;;5136899;28;20042;-67
2022/04/12 09:41:15;;;;;;;6.80;4.45;;;17.20;49.30;;;;;;5135582;28;20043;-67
2022/04/12 09:44:16;;;;;;;8.48;4.20;;;17.20;47.20;;;;;;5136863;28;20058;-67
2022/04/12 09:46:42;;;;;;;7.32;4.18;;;17.30;48.30;;;;;;5135656;28;20020;-67
2022/04/12 09:49:08;;;;;;;5.65;4.63;;;17.40;48.20;;;;;;5135621;28;20022;-67
2022/04/12 09:51:37;;;;;;;10.82;5.05;;;17.40;47.90;;;;;;5136604;28;20027;-67
2022/04/12 09:54:06;;;;;;;7.00;4.03;;;17.50;47.50;;;;;;5136604;28;20020;-67
2022/04/12 09:56:33;;;;;;;6.82;3.63;;;17.50;46.70;;;;;;5136478;28;20087;-67
2022/04/12 09:59:06;;;;;;;11.63;4.40;;;17.60;47.40;;;;;;5136443;28;20075;-67
2022/04/12 10:01:39;;;;;;;5.72;3.70;;;17.70;48.40;;;;;;5134862;28;20035;-67
2022/04/12 10:04:06;;;;;;;;;;;17.80;46.50;;;;;;5136800;28;20030;-67
2022/04/12 10:06:38;;;;;;;7.82;3.97;;;17.90;47.30;;;;;;5136311;28;20476;-68
2022/04/12 10:09:05;;;;;;;6.47;4.05;;;17.80;46.30;;;;;;5136275;27;20079;-67
2022/04/12 10:11:31;;;;;;;6.78;4.07;;;17.80;47.90;;;;;;5136380;28;20012;-67
2022/04/12 10:14:00;;;;;;;10.25;4.07;;;17.80;46.90;;;;;;5136177;28;20120;-67
2022/04/12 10:16:26;;;;;;;6.68;4.45;;;17.90;47.60;;;;;;5136066;28;20020;-67
2022/04/12 10:18:53;;;;;;;6.72;4.13;;;18.10;48.30;;;;;;5136018;28;20087;-67
2022/04/12 10:21:22;;;;;;;9.77;4.13;;;18.20;46.70;;;;;;5136050;28;20024;-67
2022/04/12 10:23:54;;;;;;;9.88;4.03;;;18.30;48.90;;;;;;5135920;28;20028;-67
2022/04/12 10:26:22;;;;;;;12.98;4.30;;;18.30;46.80;;;;;;5135963;28;20028;-67
2022/04/12 10:28:59;;;;;;;7.70;4.90;;;18.40;49.80;;;;;;5135769;28;20032;-68
2022/04/12 10:31:28;;;;;;;6.03;4.30;;;18.50;49.30;;;;;;5135843;28;20087;-67
2022/04/12 10:34:12;;;;;;;7.78;4.03;;;18.60;46.00;;;;;;5135804;28;20035;-67
2022/04/12 10:36:55;;;;;;;8.90;4.18;;;18.60;45.80;;;;;;5135419;28;20028;-67
2022/04/12 10:39:42;;;;;;;7.70;3.80;;;18.60;45.10;;;;;;5135772;28;20024;-67
2022/04/12 10:42:13;;;;;;;7.80;3.85;;;18.40;45.90;;;;;;5135568;28;20048;-67
2022/04/12 10:44:44;;;;;;;9.05;4.00;;;18.50;47.20;;;;;;5135707;28;20047;-67
2022/04/12 10:47:22;;;;;;;8.65;4.20;;;18.50;46.10;;;;;;5135509;28;20039;-67
2022/04/12 10:49:53;;;;;;;10.00;5.22;;;18.50;45.80;;;;;;5135434;28;20024;-67
2022/04/12 10:52:19;;;;;;;8.80;4.43;;;18.50;46.20;;;;;;5135469;28;20083;-67
2022/04/12 10:54:47;;;;;;;7.50;4.13;;;18.60;45.80;;;;;;5135362;28;20028;-67
2022/04/12 10:57:18;;;;;;;9.60;4.30;;;18.70;47.20;;;;;;5135298;28;20019;-67
2022/04/12 11:00:00;;;;;;;8.10;3.70;;;18.80;46.40;;;;;;5135279;28;20028;-67
2022/04/12 11:02:35;;;;;;;9.18;3.80;;;19.00;46.40;;;;;;5135326;28;20287;-67
2022/04/12 11:05:01;;;;;;;9.13;4.80;;;18.90;43.60;;;;;;5135242;27;20106;-67
2022/04/12 11:07:35;;;;;;;8.27;4.45;;;18.90;45.50;;;;;;5135107;28;20524;-67
2022/04/12 11:10:13;;;;;;;7.20;4.20;;;19.10;48.00;;;;;;5135162;28;20046;-67
2022/04/12 11:12:43;;;;;;;8.10;4.13;;;19.20;45.40;;;;;;5133891;28;20023;-67
2022/04/12 11:15:27;;;;;;;7.32;3.75;;;19.30;46.50;;;;;;5135009;28;20031;-68
2022/04/12 11:18:12;;;;;;;10.48;5.28;;;19.40;46.10;;;;;;5134890;28;20026;-67
2022/04/12 11:20:41;;;;;;;6.97;4.05;;;19.30;45.60;;;;;;5134829;28;20106;-67
2022/04/12 11:23:12;;;;;;;8.52;4.22;;;19.40;43.70;;;;;;5134813;28;20102;-67
2022/04/12 11:25:51;;;;;;;9.45;3.70;;;19.30;44.90;;;;;;5134854;28;20032;-67
2022/04/12 11:28:25;;;;;;;7.28;3.20;;;19.30;45.30;;;;;;5134614;28;20046;-67
2022/04/12 11:30:58;;;;;;;5.60;3.78;;;19.30;44.20;;;;;;5134572;28;20063;-67
2022/04/12 11:33:28;;;;;;;7.82;4.53;;;19.30;44.00;;;;;;5133637;28;20027;-67
2022/04/12 11:35:56;;;;;;;9.32;4.30;;;19.20;45.80;;;;;;5134544;28;20026;-67
2022/04/12 11:38:23;;;;;;;7.70;3.45;;;19.30;43.50;;;;;;5134466;28;20020;-67
2022/04/12 11:40:51;;;;;;;6.35;3.80;;;19.40;45.00;;;;;;5134152;28;20458;-68
2022/04/12 11:43:25;;;;;;;7.70;3.38;;;19.40;43.30;;;;;;5133490;28;20095;-68
2022/04/12 11:45:56;;;;;;;9.30;3.42;;;19.60;44.20;;;;;;5134161;28;20042;-67
2022/04/12 11:48:26;;;;;;;6.00;3.08;;;19.60;43.80;;;;;;5133904;28;20031;-67
2022/04/12 11:50:56;;;;;;;6.63;2.72;;;19.70;43.10;;;;;;5134245;28;20024;-68
2022/04/12 11:53:23;;;;;;;7.47;3.28;;;19.70;41.90;;;;;;5134277;28;20074;-67
2022/04/12 11:55:49;;;;;;;8.10;3.72;;;19.80;44.30;;;;;;5134171;28;20346;-67
2022/04/12 11:58:18;;;;;;;5.68;2.88;;;19.90;45.20;;;;;;5134197;28;20016;-67
2022/04/12 12:00:44;;;;;;;7.57;3.22;;;20.00;42.20;;;;;;5134156;28;20023;-68
2022/04/12 12:03:17;;;;;;;6.18;3.00;;;20.00;41.30;;;;;;5134128;28;20114;-67
2022/04/12 12:05:44;;;;;;;5.97;3.10;;;20.00;41.10;;;;;;5133132;28;20433;-67
2022/04/12 12:08:11;;;;;;;6.32;3.00;;;20.00;42.90;;;;;;5134064;28;20024;-68
2022/04/12 12:10:37;;;;;;;6.43;2.65;;;19.90;41.20;;;;;;5133940;28;20023;-67
2022/04/12 12:13:07;;;;;;;6.35;3.05;;;20.00;42.30;;;;;;5132905;28;20024;-67
2022/04/12 12:15:35;;;;;;;6.95;2.58;;;20.10;41.20;;;;;;5133985;28;20019;-67
2022/04/12 12:18:07;;;;;;;6.53;2.78;;;20.20;42.50;;;;;;5133965;28;20012;-67
2022/04/12 12:20:35;;;;;;;7.68;2.95;;;20.30;42.40;;;;;;5134063;28;20023;-67
2022/04/12 12:23:03;;;;;;;5.10;2.70;;;20.40;41.00;;;;;;5133834;28;20020;-67
2022/04/12 12:25:42;;;;;;;6.97;3.03;;;20.30;40.40;;;;;;5133695;28;20028;-67
2022/04/12 12:28:20;;;;;;;5.05;2.60;;;20.30;39.90;;;;;;5133850;28;20031;-68
2022/04/12 12:30:47;;;;;;;6.07;2.63;;;20.40;41.60;;;;;;5133747;28;20024;-68
2022/04/12 12:33:14;;;;;;;4.50;2.72;;;20.50;41.60;;;;;;5133792;28;20468;-68
2022/04/12 12:35:51;;;;;;;5.68;2.40;;;20.50;40.10;;;;;;5133724;28;20028;-68
2022/04/12 12:38:21;;;;;;;5.05;2.78;;;20.60;39.00;;;;;;5133721;28;20031;-68
2022/04/12 12:40:47;;;;;;;5.00;2.83;;;20.60;40.40;;;;;;5132620;28;20066;-68
2022/04/12 12:43:14;;;;;;;5.32;2.42;;;20.70;39.80;;;;;;5133732;28;20020;-68
2022/04/12 12:45:43;;;;;;;6.65;2.75;;;20.70;39.10;;;;;;5133537;28;20027;-68
2022/04/12 12:48:10;;;;;;;6.28;2.53;;;20.80;39.50;;;;;;5133593;28;20028;-67
2022/04/12 12:50:38;;;;;;;4.53;2.38;;;20.90;40.80;;;;;;5133574;28;20050;-67